Huvudsida
METAR-TAF:

METAR-TAF

Flygplatser :

Ventspils, Lettland

Ventspils lidosta

latitud: 57-21-28N, longitud: 021-32-39E, höjd: 6 m

Aktuellt väderrapport

Denna rapport gjordes för 11 minuter sedan, klockan 03:20 UTC
Vind 3 kt från ost
Temperatur -2°C
Fuktighet 100%
Tryck 998 hPa
Sikt 10 km eller mer
Mulet på en höjd av 4900 ft

METAR: EVVA 190320Z AUTO 09003KT 9999 OVC049 M02/M02 Q0998

Tid: 05:31 (03:31 UTC)


TAF: saknas

Aktuella väderrapporter och prognoser från 4000 flygplatser (METAR- och TAF-rapporter).

De tillgängliga stationerna syns som gula och röda prickar på kartan.

För musen över prickarna för att se namnen på stationerna.

Klicka sedan för att få väderrapporter och prognoser.

För att ändra kartan: Klicka på de gröna knapparna med ett svart kors på för att zooma in; den gröna knappen med ett streck på för att zooma ut; eller på de gröna pilarna för angränsande kartor.


METAR-TAF: